Time;durP1;ratioP1;P1;durP2;ratioP2;P2;SDS_P1;SDS_P2;PMS_P1;PMS_P2;Temp;Humidity;BMP_temperature;BMP_pressure;BME280_temperature;BME280_humidity;BME280_pressure;Samples;Min_cycle;Max_cycle;Signal;HPM_P1;HPM_P2
2021/12/07 00:02:01;;;;;;;18.30;11.85;;;;;;;1.28;100.00;100407.69;6218586;23;20004;-62
2021/12/07 00:04:27;;;;;;;17.58;11.15;;;;;;;1.27;100.00;100409.38;6218532;23;20028;-62
2021/12/07 00:06:52;;;;;;;18.13;11.65;;;;;;;1.27;100.00;100422.28;6217993;23;20016;-62
2021/12/07 00:09:18;;;;;;;17.95;11.75;;;;;;;1.28;100.00;100418.00;6218055;23;20080;-62
2021/12/07 00:11:46;;;;;;;20.67;12.07;;;;;;;1.26;100.00;100425.69;6218114;23;20073;-62
2021/12/07 00:14:12;;;;;;;20.63;13.13;;;;;;;1.28;100.00;100423.16;6218221;23;20110;-62
2021/12/07 00:16:38;;;;;;;21.10;13.30;;;;;;;1.25;100.00;100426.53;6217864;23;20465;-62
2021/12/07 00:19:04;;;;;;;20.98;13.20;;;;;;;1.25;100.00;100425.66;6218249;23;20004;-62
2021/12/07 00:21:30;;;;;;;24.95;14.70;;;;;;;1.24;100.00;100424.78;6218119;23;20009;-62
2021/12/07 00:23:55;;;;;;;23.33;14.82;;;;;;;1.27;100.00;100432.59;6217805;23;20030;-62
2021/12/07 00:26:20;;;;;;;24.15;15.23;;;;;;;1.30;100.00;100435.22;6217995;23;20001;-62
2021/12/07 00:28:47;;;;;;;24.27;15.15;;;;;;;1.30;100.00;100431.78;6218284;23;20383;-62
2021/12/07 00:31:22;;;;;;;24.23;14.35;;;;;;;1.33;100.00;100447.31;6218247;23;20302;-62
2021/12/07 00:33:54;;;;;;;24.92;15.88;;;;;;;1.31;100.00;100436.09;6218119;23;20004;-62
2021/12/07 00:36:19;;;;;;;;;;;;;;;1.39;100.00;100450.84;6218753;23;20008;-62
2021/12/07 00:38:45;;;;;;;26.80;15.80;;;;;;;1.38;100.00;100449.13;6217859;23;20208;-63
2021/12/07 00:41:11;;;;;;;29.08;16.88;;;;;;;1.42;100.00;100449.16;6218463;23;20239;-62
2021/12/07 00:43:36;;;;;;;27.73;17.70;;;;;;;1.40;100.00;100454.28;6217900;23;20004;-62
2021/12/07 00:46:02;;;;;;;31.55;17.25;;;;;;;1.45;100.00;100465.53;6217919;23;20036;-62
2021/12/07 00:48:29;;;;;;;31.02;18.27;;;;;;;1.49;100.00;100471.63;6218174;23;20070;-62
2021/12/07 00:50:56;;;;;;;32.30;17.85;;;;;;;1.54;100.00;100465.72;6217950;23;20012;-62
2021/12/07 00:53:22;;;;;;;30.08;18.83;;;;;;;1.56;100.00;100468.31;6217813;23;20386;-62
2021/12/07 00:55:50;;;;;;;32.65;19.58;;;;;;;1.59;100.00;100474.38;6218164;23;20004;-62
2021/12/07 00:58:21;;;;;;;31.95;18.30;;;;;;;1.61;100.00;100477.84;6217496;23;20398;-62
2021/12/07 01:00:49;;;;;;;32.78;19.10;;;;;;;1.66;100.00;100481.38;6217932;23;20079;-62
2021/12/07 01:03:15;;;;;;;38.17;20.02;;;;;;;1.69;100.00;100485.72;6217841;23;20004;-62
2021/12/07 01:05:47;;;;;;;33.58;18.42;;;;;;;1.75;100.00;100475.50;6218493;23;20270;-62
2021/12/07 01:08:38;;;;;;;36.65;18.13;;;;;;;1.83;100.00;100497.13;6217967;23;20004;-62
2021/12/07 01:24:43;;;;;;;40.38;18.50;;;;;;;2.25;100.00;100512.41;6217297;23;20341;-64
2021/12/07 01:27:18;;;;;;;34.67;17.83;;;;;;;2.26;100.00;100521.88;6217677;23;20079;-63
2021/12/07 01:29:47;;;;;;;34.70;18.63;;;;;;;2.29;100.00;100542.59;6218092;23;20307;-62
2021/12/07 01:37:30;;;;;;;38.33;17.63;;;;;;;2.23;100.00;100542.50;6227575;23;20013;-63
2021/12/07 01:48:09;;;;;;;31.23;15.27;;;;;;;2.19;100.00;100557.91;6217037;23;20039;-63
2021/12/07 01:57:52;;;;;;;32.60;13.80;;;;;;;2.26;100.00;100560.59;6229298;23;20012;-63
2021/12/07 02:01:06;;;;;;;32.80;13.40;;;;;;;2.30;100.00;100575.31;6230006;23;20012;-62
2021/12/07 02:03:31;;;;;;;34.97;13.38;;;;;;;2.19;100.00;100561.38;6219886;23;20005;-62
2021/12/07 02:05:57;;;;;;;35.10;12.73;;;;;;;2.30;100.00;100582.19;6219522;23;20085;-62
2021/12/07 02:08:22;;;;;;;38.47;12.18;;;;;;;2.28;100.00;100584.72;6219104;23;20408;-62
2021/12/07 02:10:49;;;;;;;32.13;11.70;;;;;;;2.29;100.00;100593.34;6219289;23;20011;-63
2021/12/07 02:15:46;;;;;;;29.17;9.85;;;;;;;2.25;100.00;100597.59;6229859;23;20013;-62
2021/12/07 02:18:11;;;;;;;36.10;10.45;;;;;;;2.30;100.00;100600.25;6219476;23;20131;-62
2021/12/07 02:20:37;;;;;;;33.90;10.30;;;;;;;2.27;100.00;100598.47;6219329;23;20379;-62
2021/12/07 02:23:02;;;;;;;37.63;9.98;;;;;;;2.29;100.00;100601.97;6219367;23;20012;-63
2021/12/07 02:25:28;;;;;;;28.63;9.98;;;;;;;2.25;100.00;100600.16;6218884;23;20435;-62
2021/12/07 02:27:54;;;;;;;27.08;8.00;;;;;;;2.29;100.00;100612.28;6218834;23;20472;-62
2021/12/07 02:30:22;;;;;;;30.02;8.45;;;;;;;2.30;100.00;100615.75;6219231;23;20009;-62
2021/12/07 02:32:50;;;;;;;23.95;7.93;;;;;;;2.29;100.00;100612.28;6219396;23;20013;-63
2021/12/07 02:35:22;;;;;;;31.05;7.35;;;;;;;2.28;100.00;100618.28;6219320;23;20020;-62
2021/12/07 02:37:47;;;;;;;28.45;7.00;;;;;;;2.25;100.00;100625.97;6218849;23;20070;-63
2021/12/07 02:40:13;;;;;;;23.08;6.68;;;;;;;2.26;100.00;100622.56;6219341;23;20020;-63
2021/12/07 02:42:38;;;;;;;25.90;6.85;;;;;;;2.24;100.00;100628.56;6219139;23;20386;-63
2021/12/07 02:45:05;;;;;;;22.85;6.43;;;;;;;2.19;100.00;100633.66;6219274;23;20044;-63
2021/12/07 02:47:34;;;;;;;24.42;6.40;;;;;;;2.22;100.00;100635.41;6219008;23;20016;-63
2021/12/07 02:49:59;;;;;;;27.77;6.63;;;;;;;2.21;100.00;100644.00;6218827;23;20011;-63
2021/12/07 02:52:24;;;;;;;26.92;6.10;;;;;;;2.23;100.00;100655.22;6218933;23;20004;-63
2021/12/07 02:54:50;;;;;;;24.77;5.72;;;;;;;2.19;100.00;100646.56;6219105;23;20005;-62
2021/12/07 02:57:18;;;;;;;29.23;5.10;;;;;;;2.16;100.00;100654.25;6219073;23;20008;-62
2021/12/07 02:59:51;;;;;;;23.63;5.88;;;;;;;2.15;100.00;100655.09;6219228;23;20023;-63
2021/12/07 03:02:18;;;;;;;;;;;;;;;2.16;100.00;100664.56;6219409;23;20351;-63
2021/12/07 03:04:58;;;;;;;25.13;4.57;;;;;;;2.08;100.00;100654.09;6218737;23;20259;-63
2021/12/07 03:07:45;;;;;;;30.27;5.65;;;;;;;2.16;100.00;100674.03;6219445;23;20023;-63
2021/12/07 03:26:25;;;;;;;21.00;5.10;;;;;;;1.94;100.00;100689.09;6218936;23;20027;-62
2021/12/07 03:28:53;;;;;;;19.95;5.07;;;;;;;1.93;100.00;100695.09;6219076;23;20040;-62
2021/12/07 03:31:19;;;;;;;21.13;5.28;;;;;;;1.94;100.00;100701.13;6218706;23;20088;-62
2021/12/07 03:33:44;;;;;;;37.58;6.18;;;;;;;1.91;100.00;100689.03;6218651;23;20039;-62
2021/12/07 03:36:11;;;;;;;21.27;5.00;;;;;;;1.93;100.00;100702.84;6218418;23;20008;-63
2021/12/07 03:38:38;;;;;;;23.80;6.13;;;;;;;1.92;100.00;100702.81;6218334;23;20034;-63
2021/12/07 03:41:04;;;;;;;29.58;5.97;;;;;;;1.83;100.00;100705.22;6217698;23;20023;-62
2021/12/07 03:43:30;;;;;;;26.83;5.60;;;;;;;1.84;100.00;100730.19;6219545;23;20252;-62
2021/12/07 03:45:55;;;;;;;30.17;5.00;;;;;;;1.78;100.00;100722.31;6218566;23;20004;-62
2021/12/07 03:48:21;;;;;;;22.83;5.00;;;;;;;1.78;100.00;100738.66;6217992;23;20083;-62
2021/12/07 03:50:46;;;;;;;22.73;5.18;;;;;;;1.75;100.00;100742.06;6218319;23;20015;-63
2021/12/07 03:53:12;;;;;;;25.48;5.55;;;;;;;1.74;100.00;100734.28;6219092;23;20011;-62
2021/12/07 03:55:38;;;;;;;26.27;5.40;;;;;;;1.72;100.00;100730.81;6218551;23;20004;-63
2021/12/07 03:58:04;;;;;;;27.85;4.97;;;;;;;1.70;100.00;100733.38;6218520;23;20008;-62
2021/12/07 04:00:33;;;;;;;23.45;4.97;;;;;;;1.65;100.00;100740.13;6218507;23;20012;-63
2021/12/07 04:03:02;;;;;;;26.05;5.20;;;;;;;1.63;100.00;100743.50;6218659;23;20009;-63
2021/12/07 04:05:28;;;;;;;25.30;4.72;;;;;;;1.64;100.00;100734.94;6218216;23;20106;-64
2021/12/07 04:07:53;;;;;;;27.52;5.03;;;;;;;1.65;100.00;100726.38;6218632;23;20017;-63
2021/12/07 04:10:22;;;;;;;24.52;5.30;;;;;;;1.65;100.00;100739.25;6217986;23;20383;-63
2021/12/07 04:12:48;;;;;;;26.77;4.88;;;;;;;1.64;100.00;100727.19;6217992;23;20028;-63
2021/12/07 04:15:16;;;;;;;24.50;5.07;;;;;;;1.62;100.00;100742.63;6217921;23;20322;-63
2021/12/07 04:17:42;;;;;;;17.77;5.13;;;;;;;1.56;100.00;100747.66;6217542;23;20028;-62
2021/12/07 04:20:10;;;;;;;30.42;5.43;;;;;;;1.57;100.00;100753.69;6218063;23;20005;-63
2021/12/07 04:22:36;;;;;;;27.38;4.68;;;;;;;1.54;100.00;100746.78;6218952;23;20008;-63
2021/12/07 04:25:05;;;;;;;21.35;4.90;;;;;;;1.58;100.00;100750.28;6217698;23;20446;-62
2021/12/07 04:27:34;;;;;;;24.42;5.22;;;;;;;1.59;100.00;100746.84;6217631;23;20005;-62
2021/12/07 04:30:00;;;;;;;31.48;5.47;;;;;;;1.54;100.00;100751.06;6218667;23;20008;-62
2021/12/07 04:32:25;;;;;;;17.42;4.15;;;;;;;1.50;100.00;100752.72;6218351;23;20326;-62
2021/12/07 04:34:50;;;;;;;19.67;4.68;;;;;;;1.45;100.00;100746.56;6217682;23;20088;-62
2021/12/07 04:37:16;;;;;;;24.73;4.85;;;;;;;1.49;100.00;100748.38;6217904;23;20074;-63
2021/12/07 04:39:41;;;;;;;28.48;5.03;;;;;;;1.53;100.00;100750.19;6217742;23;20013;-63
2021/12/07 04:42:06;;;;;;;29.25;5.20;;;;;;;1.55;100.00;100756.25;6217603;23;20318;-62
2021/12/07 04:44:37;;;;;;;25.02;4.50;;;;;;;1.54;100.00;100763.97;6218004;23;20004;-62
2021/12/07 04:47:15;;;;;;;25.17;4.88;;;;;;;1.56;100.00;100776.03;6217864;23;20022;-63
2021/12/07 04:57:53;;;;;;;28.80;4.55;;;;;;;1.58;100.00;100769.19;6218200;23;20030;-62
2021/12/07 05:00:24;;;;;;;22.65;4.40;;;;;;;1.60;100.00;100772.69;6217832;23;20091;-63
2021/12/07 05:02:56;;;;;;;27.30;4.20;;;;;;;1.56;100.00;100757.97;6217619;23;20314;-62
2021/12/07 05:05:26;;;;;;;22.30;4.18;;;;;;;1.46;100.00;100766.34;6217452;23;20166;-62
2021/12/07 05:07:54;;;;;;;18.33;3.95;;;;;;;1.54;100.00;100788.03;6217697;23;20012;-63
2021/12/07 05:10:27;;;;;;;20.35;4.10;;;;;;;1.51;100.00;100789.69;6217745;23;20004;-63
2021/12/07 05:16:11;;;;;;;20.52;4.53;;;;;;;1.43;100.00;100793.78;6227814;23;20306;-63
2021/12/07 05:18:37;;;;;;;22.42;4.18;;;;;;;1.42;100.00;100786.88;6213601;23;20005;-62
2021/12/07 05:24:12;;;;;;;15.77;3.63;;;;;;;1.26;100.00;100796.84;6217585;23;20094;-62
2021/12/07 05:37:58;;;;;;;24.27;5.78;;;;;;;1.32;100.00;100827.06;6227884;23;20091;-62
2021/12/07 05:40:35;;;;;;;25.17;6.38;;;;;;;1.31;100.00;100830.47;6217645;23;20012;-62
2021/12/07 05:43:02;;;;;;;27.88;8.38;;;;;;;1.28;100.00;100836.41;6217875;23;20080;-61
2021/12/07 05:45:36;;;;;;;28.38;8.07;;;;;;;1.28;100.00;100846.72;6217562;23;20009;-62
2021/12/07 05:48:04;;;;;;;36.33;9.57;;;;;;;1.36;100.00;100859.81;6217462;23;20006;-63
2021/12/07 05:50:32;;;;;;;36.67;9.32;;;;;;;1.30;100.00;100851.91;6218026;23;20005;-65
2021/12/07 05:52:59;;;;;;;37.90;9.43;;;;;;;1.30;100.00;100864.81;6217579;23;20013;-64
2021/12/07 05:55:24;;;;;;;29.55;9.35;;;;;;;1.32;100.00;100864.03;6217569;23;20013;-64
2021/12/07 05:57:50;;;;;;;41.95;10.48;;;;;;;1.29;100.00;100870.78;6217594;23;20390;-64
2021/12/07 06:00:25;;;;;;;33.50;10.32;;;;;;;1.30;100.00;100869.97;6217361;23;20004;-66
2021/12/07 06:02:59;;;;;;;34.88;9.95;;;;;;;1.33;100.00;100870.91;6217006;23;20008;-68
2021/12/07 06:05:28;;;;;;;36.03;10.15;;;;;;;1.28;100.00;100869.06;6217231;23;20004;-68
2021/12/07 06:07:54;;;;;;;39.83;10.63;;;;;;;1.32;100.00;100871.75;6217410;23;20050;-67
2021/12/07 06:10:19;;;;;;;35.58;9.35;;;;;;;1.25;100.00;100864.69;6217560;23;20063;-67
2021/12/07 06:12:45;;;;;;;43.70;10.20;;;;;;;1.22;100.00;100877.50;6217249;23;20066;-67
2021/12/07 06:15:12;;;;;;;39.05;10.68;;;;;;;1.14;100.00;100873.00;6218022;23;20005;-67
2021/12/07 06:17:37;;;;;;;31.05;9.27;;;;;;;1.07;100.00;100877.13;6217488;23;20079;-67
2021/12/07 06:20:05;;;;;;;30.55;9.77;;;;;;;1.08;100.00;100872.84;6217270;23;20023;-67
2021/12/07 06:22:31;;;;;;;35.97;9.70;;;;;;;1.17;100.00;100863.66;6217413;23;20009;-68
2021/12/07 06:24:56;;;;;;;37.30;10.27;;;;;;;1.17;100.00;100875.66;6217425;23;20122;-67
2021/12/07 06:27:21;;;;;;;37.28;9.77;;;;;;;1.18;100.00;100872.25;6216854;23;20150;-67
2021/12/07 06:29:47;;;;;;;36.22;9.98;;;;;;;1.20;100.00;100875.75;6217018;23;20012;-65
2021/12/07 06:32:12;;;;;;;31.92;9.48;;;;;;;1.18;100.00;100886.00;6217333;23;20008;-66
2021/12/07 06:34:37;;;;;;;35.60;9.88;;;;;;;1.20;100.00;100896.34;6217631;23;20018;-63
2021/12/07 06:37:03;;;;;;;47.15;10.32;;;;;;;1.22;100.00;100887.81;6217681;23;20000;-63
2021/12/07 06:39:29;;;;;;;42.53;10.57;;;;;;;1.19;100.00;100892.03;6216898;23;20024;-62
2021/12/07 06:41:55;;;;;;;30.27;9.73;;;;;;;1.15;100.00;100891.09;6218798;23;20009;-63
2021/12/07 06:44:21;;;;;;;41.45;10.85;;;;;;;1.12;100.00;100884.97;6219160;23;20098;-63
2021/12/07 06:46:48;;;;;;;37.50;10.23;;;;;;;1.10;100.00;100887.50;6219176;23;20012;-63
2021/12/07 06:49:15;;;;;;;38.47;10.40;;;;;;;1.13;100.00;100890.16;6219301;23;20008;-62
2021/12/07 06:51:40;;;;;;;37.88;11.25;;;;;;;1.11;100.00;100881.53;6219267;23;20343;-62
2021/12/07 06:54:06;;;;;;;37.10;10.40;;;;;;;1.10;100.00;100884.94;6219053;23;20013;-62
2021/12/07 06:56:31;;;;;;;42.55;10.52;;;;;;;1.10;100.00;100879.78;6218499;23;20076;-62
2021/12/07 06:58:56;;;;;;;33.22;10.85;;;;;;;1.07;100.00;100884.84;6217716;23;20008;-62
2021/12/07 07:01:22;;;;;;;37.17;10.50;;;;;;;1.05;100.00;100884.81;6219577;23;20004;-62
2021/12/07 07:03:47;;;;;;;33.65;9.73;;;;;;;1.09;100.00;100900.34;6218844;23;20005;-62
2021/12/07 07:06:13;;;;;;;36.92;11.70;;;;;;;1.07;100.00;100907.16;6218949;23;20012;-64
2021/12/07 07:08:38;;;;;;;35.78;10.77;;;;;;;1.09;100.00;100905.50;6218487;23;20008;-62
2021/12/07 07:11:05;;;;;;;43.28;11.20;;;;;;;1.15;100.00;100913.41;6218849;23;20019;-62
2021/12/07 07:13:31;;;;;;;35.95;11.43;;;;;;;1.14;100.00;100896.19;6219249;23;20015;-62
2021/12/07 07:15:56;;;;;;;37.88;11.73;;;;;;;1.12;100.00;100906.47;6219453;23;20008;-62
2021/12/07 07:18:21;;;;;;;37.15;10.40;;;;;;;1.13;100.00;100899.59;6217857;23;20016;-62
2021/12/07 07:20:47;;;;;;;46.10;12.23;;;;;;;1.12;100.00;100905.59;6217488;23;20019;-63
2021/12/07 07:23:12;;;;;;;39.38;11.18;;;;;;;1.10;100.00;100899.53;6218960;23;20007;-63
2021/12/07 07:25:37;;;;;;;51.88;11.82;;;;;;;1.07;100.00;100878.81;6218218;23;20004;-64
2021/12/07 07:28:03;;;;;;;37.28;11.32;;;;;;;1.13;100.00;100897.91;6218466;23;20323;-63
2021/12/07 07:30:28;;;;;;;43.05;11.65;;;;;;;1.11;100.00;100916.72;6218978;23;20004;-63
2021/12/07 07:32:54;;;;;;;30.65;10.95;;;;;;;0.99;100.00;100905.28;6218179;23;20313;-64
2021/12/07 07:35:20;;;;;;;33.60;11.50;;;;;;;1.15;100.00;100919.44;6218612;23;20009;-62
2021/12/07 07:37:46;;;;;;;38.20;11.55;;;;;;;1.19;100.00;100923.84;6218201;23;20001;-61
2021/12/07 07:40:16;;;;;;;35.15;12.07;;;;;;;1.25;100.00;100918.81;6218187;23;20008;-62
2021/12/07 07:42:41;;;;;;;44.20;11.57;;;;;;;1.36;100.00;100919.09;6218120;23;20651;-61
2021/12/07 07:45:07;;;;;;;38.08;10.95;;;;;;;1.34;100.00;100915.63;6218090;23;20004;-63
2021/12/07 07:47:32;;;;;;;37.30;11.57;;;;;;;1.40;100.00;100919.19;6218327;23;20146;-61
2021/12/07 07:49:58;;;;;;;33.90;11.10;;;;;;;1.37;100.00;100895.06;6218088;23;20004;-61
2021/12/07 07:52:23;;;;;;;31.98;10.10;;;;;;;1.50;100.00;100902.25;6217913;23;20012;-62
2021/12/07 07:54:48;;;;;;;39.15;11.02;;;;;;;1.54;100.00;100916.97;6218096;23;20402;-61
2021/12/07 07:57:14;;;;;;;34.35;10.48;;;;;;;1.58;100.00;100898.13;6218050;23;20044;-61
2021/12/07 07:59:40;;;;;;;35.45;10.73;;;;;;;1.58;100.00;100899.84;6218284;23;20004;-61
2021/12/07 08:02:06;;;;;;;33.00;10.90;;;;;;;1.53;100.00;100889.44;6216537;23;20005;-62
2021/12/07 08:04:32;;;;;;;40.70;11.50;;;;;;;1.53;100.00;100893.72;6218044;23;20011;-62
2021/12/07 08:06:57;;;;;;;36.08;11.20;;;;;;;1.53;100.00;100901.47;6217545;23;20008;-62
2021/12/07 08:09:22;;;;;;;32.47;10.85;;;;;;;1.54;100.00;100903.22;6217583;23;20020;-62
2021/12/07 08:11:48;;;;;;;40.47;11.57;;;;;;;1.57;100.00;100911.88;6217946;23;20013;-62
2021/12/07 08:14:15;;;;;;;32.78;10.13;;;;;;;1.62;100.00;100912.84;6214626;23;20013;-62
2021/12/07 08:16:41;;;;;;;33.05;10.25;;;;;;;1.65;100.00;100900.03;6217863;23;20007;-62
2021/12/07 08:19:06;;;;;;;31.95;9.88;;;;;;;1.71;100.00;100920.84;6217913;23;20294;-62
2021/12/07 08:21:32;;;;;;;35.83;9.93;;;;;;;1.71;100.00;100923.41;6217915;23;20408;-62
2021/12/07 08:23:57;;;;;;;22.38;8.13;;;;;;;1.78;100.00;100927.00;6217598;23;20008;-62
2021/12/07 08:26:23;;;;;;;25.77;8.40;;;;;;;1.77;100.00;100939.84;6217779;23;20099;-62
2021/12/07 08:28:50;;;;;;;26.15;8.82;;;;;;;1.76;100.00;100941.56;6217882;23;20042;-62
2021/12/07 08:31:16;;;;;;;17.48;7.75;;;;;;;1.87;100.00;100936.66;6217879;23;20005;-62
2021/12/07 08:33:41;;;;;;;26.50;8.15;;;;;;;1.80;100.00;100934.75;6217968;23;20079;-62
2021/12/07 08:36:07;;;;;;;29.30;7.25;;;;;;;1.77;100.00;100938.13;6217587;23;20079;-62
2021/12/07 08:38:32;;;;;;;16.88;5.97;;;;;;;1.81;100.00;100936.50;6217546;23;20008;-61
2021/12/07 08:40:58;;;;;;;27.67;6.97;;;;;;;1.94;100.00;100941.09;6217548;23;20004;-62
2021/12/07 08:43:27;;;;;;;20.00;6.90;;;;;;;1.78;100.00;100939.88;6217423;23;20083;-64
2021/12/07 08:45:54;;;;;;;20.73;7.60;;;;;;;1.77;100.00;100943.28;6217729;23;20397;-62
2021/12/07 08:48:20;;;;;;;27.88;7.45;;;;;;;1.85;100.00;100939.22;6217920;23;20031;-62
2021/12/07 08:50:47;;;;;;;28.35;8.02;;;;;;;1.86;100.00;100922.88;6217305;23;20468;-61
2021/12/07 08:53:15;;;;;;;22.48;7.05;;;;;;;1.94;100.00;100928.22;6217660;23;20079;-58
2021/12/07 09:01:15;;;;;;;22.63;7.82;;;;;;;1.85;100.00;100897.06;6217314;23;20449;-61
2021/12/07 09:03:40;;;;;;;19.45;7.30;;;;;;;2.02;100.00;100908.63;6217256;23;20004;-63
2021/12/07 09:06:06;;;;;;;20.85;6.95;;;;;;;2.04;100.00;100906.94;6217313;23;20016;-62
2021/12/07 09:08:32;;;;;;;24.35;8.23;;;;;;;2.09;100.00;100898.44;6217843;23;20302;-62
2021/12/07 09:10:58;;;;;;;21.67;7.07;;;;;;;2.20;100.00;100897.81;6217454;23;20011;-62
2021/12/07 09:13:26;;;;;;;27.98;8.20;;;;;;;2.19;100.00;100891.78;6217467;23;20008;-62
2021/12/07 09:15:52;;;;;;;19.48;6.82;;;;;;;2.30;100.00;100895.44;6217479;23;20012;-61
2021/12/07 09:18:18;;;;;;;24.75;7.28;;;;;;;2.40;100.00;100891.38;6216744;23;20406;-62
2021/12/07 09:20:43;;;;;;;17.98;6.80;;;;;;;2.44;100.00;100894.00;6217420;23;20000;-62
2021/12/07 09:23:09;;;;;;;20.83;7.50;;;;;;;2.45;100.00;100905.22;6217453;23;20005;-61
2021/12/07 09:25:35;;;;;;;22.42;6.47;;;;;;;2.45;100.00;100908.69;6217755;23;20020;-61
2021/12/07 09:28:00;;;;;;;19.05;6.57;;;;;;;2.49;100.00;100901.88;6217044;23;20016;-61
2021/12/07 09:30:26;;;;;;;21.15;6.82;;;;;;;2.53;100.00;100907.97;6217479;23;20036;-61
2021/12/07 09:32:52;;;;;;;22.05;7.35;;;;;;;2.54;100.00;100908.00;6217078;23;20004;-63
2021/12/07 09:35:18;;;;;;;22.75;6.57;;;;;;;2.60;100.00;100910.69;6217364;23;20012;-61
2021/12/07 09:37:44;;;;;;;20.80;6.65;;;;;;;2.62;100.00;100905.56;6217460;23;20058;-62
2021/12/07 09:40:14;;;;;;;25.90;6.75;;;;;;;2.64;100.00;100901.28;6217304;23;20099;-61
2021/12/07 09:42:40;;;;;;;19.00;6.45;;;;;;;2.69;100.00;100910.00;6217425;23;20009;-61
2021/12/07 09:45:08;;;;;;;21.15;5.53;;;;;;;2.84;100.00;100902.56;6216978;23;20306;-61
2021/12/07 09:47:34;;;;;;;21.08;6.38;;;;;;;2.86;100.00;100894.84;6217065;23;20143;-62
2021/12/07 09:50:00;;;;;;;16.10;6.32;;;;;;;2.86;100.00;100900.88;6217274;23;20009;-61
2021/12/07 09:52:26;;;;;;;18.00;5.88;;;;;;;2.84;100.00;100888.75;6217051;23;20011;-62
2021/12/07 09:54:53;;;;;;;20.48;6.20;;;;;;;2.96;100.00;100909.66;6217382;23;20091;-61
2021/12/07 09:57:18;;;;;;;20.33;6.07;;;;;;;3.05;100.00;100913.28;6217331;23;20028;-61
2021/12/07 09:59:43;;;;;;;19.27;5.93;;;;;;;3.11;100.00;100903.06;6217507;23;20012;-61
2021/12/07 10:02:09;;;;;;;20.13;5.80;;;;;;;3.08;100.00;100903.00;6216977;23;20087;-62
2021/12/07 10:04:35;;;;;;;15.85;6.30;;;;;;;3.12;100.00;100899.59;6217286;23;20019;-62
2021/12/07 10:07:00;;;;;;;20.52;5.40;;;;;;;3.19;100.00;100891.97;6217294;23;20004;-62
2021/12/07 10:09:26;;;;;;;17.52;6.15;;;;;;;3.19;100.00;100890.25;6217305;23;20015;-62
2021/12/07 10:11:54;;;;;;;17.63;5.30;;;;;;;3.35;100.00;100893.97;6217328;23;20071;-62
2021/12/07 10:14:20;;;;;;;17.10;5.88;;;;;;;3.38;100.00;100884.56;6217239;23;20361;-62
2021/12/07 10:16:48;;;;;;;18.00;5.63;;;;;;;3.46;100.00;100872.59;6218391;23;20005;-62
2021/12/07 10:19:32;;;;;;;21.23;5.50;;;;;;;3.50;100.00;100866.63;6218815;23;20418;-61
2021/12/07 10:22:08;;;;;;;15.63;5.35;;;;;;;3.54;100.00;100862.38;6218804;23;20394;-61
2021/12/07 10:24:42;;;;;;;18.52;5.50;;;;;;;3.64;100.00;100872.00;6219244;23;20009;-61
2021/12/07 10:27:08;;;;;;;18.45;6.18;;;;;;;3.71;100.00;100875.56;6218884;23;20004;-65
2021/12/07 10:29:34;;;;;;;18.77;5.63;;;;;;;3.74;100.00;100870.44;6218662;23;20069;-62
2021/12/07 10:32:05;;;;;;;19.95;5.35;;;;;;;3.82;100.00;100868.81;6219277;23;20036;-62
2021/12/07 10:34:35;;;;;;;20.13;5.82;;;;;;;3.79;100.00;100867.09;6219053;23;20290;-62
2021/12/07 10:37:08;;;;;;;18.55;5.43;;;;;;;3.87;100.00;100856.81;6218977;23;20015;-62
2021/12/07 10:39:43;;;;;;;20.02;5.20;;;;;;;3.85;100.00;100855.94;6218279;23;20059;-62
2021/12/07 10:42:17;;;;;;;17.63;5.78;;;;;;;3.86;100.00;100834.38;6218784;23;20020;-62
2021/12/07 10:44:43;;;;;;;18.70;5.40;;;;;;;3.93;100.00;100843.09;6218957;23;20011;-62
2021/12/07 10:47:13;;;;;;;14.73;5.57;;;;;;;4.06;99.98;100847.59;6218810;23;20008;-62
2021/12/07 10:49:54;;;;;;;15.30;5.25;;;;;;;4.05;100.00;100831.19;6218857;23;20008;-62
2021/12/07 10:52:40;;;;;;;18.40;5.93;;;;;;;4.17;100.00;100831.31;6218220;23;20505;-62
2021/12/07 10:55:10;;;;;;;19.92;5.38;;;;;;;4.22;99.33;100825.34;6218876;23;20012;-62
2021/12/07 10:57:51;;;;;;;21.65;5.60;;;;;;;4.29;99.86;100824.56;6218929;23;20005;-62
2021/12/07 11:00:33;;;;;;;19.13;5.90;;;;;;;4.34;100.00;100808.22;6218834;23;20019;-62
2021/12/07 11:03:04;;;;;;;13.02;5.40;;;;;;;4.45;98.75;100808.34;6218982;23;20040;-62
2021/12/07 11:05:36;;;;;;;21.50;5.67;;;;;;;4.47;98.69;100807.50;6218817;23;20000;-61
2021/12/07 11:08:03;;;;;;;15.77;5.20;;;;;;;4.50;96.86;100785.94;6218852;23;20008;-62
2021/12/07 11:10:32;;;;;;;22.73;5.43;;;;;;;4.46;96.95;100779.00;6218409;23;20004;-62
2021/12/07 11:13:18;;;;;;;18.10;5.85;;;;;;;4.45;96.66;100780.72;6218234;23;20087;-62
2021/12/07 11:15:56;;;;;;;17.20;6.57;;;;;;;4.52;97.64;100777.31;6218825;23;20005;-62
2021/12/07 11:18:36;;;;;;;16.33;5.57;;;;;;;4.58;97.07;100776.50;6218370;23;20005;-62
2021/12/07 11:21:05;;;;;;;15.15;5.43;;;;;;;4.58;97.90;100770.47;6218308;23;20349;-62
2021/12/07 11:23:39;;;;;;;20.67;6.30;;;;;;;4.63;98.00;100764.47;6218266;23;20052;-62
2021/12/07 11:31:49;;;;;;;15.85;6.60;;;;;;;4.88;96.42;100758.63;6218217;23;20031;-62
2021/12/07 11:34:23;;;;;;;17.00;6.15;;;;;;;4.89;94.50;100762.09;6218587;23;20008;-62
2021/12/07 11:36:51;;;;;;;19.42;6.30;;;;;;;4.89;92.89;100764.69;6218295;23;20004;-62
2021/12/07 11:39:25;;;;;;;17.92;6.10;;;;;;;4.95;93.54;100756.97;6218386;23;20013;-62
2021/12/07 11:42:08;;;;;;;23.10;6.78;;;;;;;4.91;94.26;100750.03;6218670;23;20015;-62
2021/12/07 11:44:58;;;;;;;17.55;5.75;;;;;;;5.04;93.94;100749.25;6218336;23;20503;-62
2021/12/07 11:47:25;;;;;;;17.75;5.40;;;;;;;4.98;93.29;100753.53;6206639;23;20374;-62
2021/12/07 11:49:50;;;;;;;19.08;5.93;;;;;;;5.02;93.22;100750.13;6218518;23;20008;-62
2021/12/07 11:52:16;;;;;;;17.42;5.28;;;;;;;5.03;93.05;100754.44;6218303;23;20342;-62
2021/12/07 11:54:43;;;;;;;20.58;5.15;;;;;;;5.02;93.77;100738.00;6217894;23;20015;-63
2021/12/07 11:57:14;;;;;;;17.05;5.28;;;;;;;5.06;93.15;100738.88;6218178;23;20009;-62
2021/12/07 11:59:40;;;;;;;19.67;5.32;;;;;;;4.87;94.00;100707.63;6218291;23;20004;-62
2021/12/07 12:02:06;;;;;;;15.20;5.07;;;;;;;5.09;92.51;100729.41;6218579;23;20051;-62
2021/12/07 12:04:32;;;;;;;16.27;4.65;;;;;;;5.13;92.29;100725.13;6218172;23;20079;-61
2021/12/07 12:06:58;;;;;;;11.35;4.35;;;;;;;5.07;91.39;100720.75;6218160;23;20019;-61
2021/12/07 12:09:25;;;;;;;15.73;4.53;;;;;;;5.10;91.08;100720.78;6217697;23;20004;-62
2021/12/07 12:12:19;;;;;;;11.98;3.95;;;;;;;5.17;90.67;100706.13;6218075;23;20008;-62
2021/12/07 12:14:58;;;;;;;17.55;4.13;;;;;;;5.19;89.58;100700.09;6218244;23;20020;-62
2021/12/07 12:17:54;;;;;;;17.40;4.05;;;;;;;5.14;90.96;100708.69;6217997;23;20005;-62
2021/12/07 12:20:38;;;;;;;11.07;3.95;;;;;;;5.30;89.20;100697.56;6217967;23;20015;-61
2021/12/07 12:23:33;;;;;;;15.27;3.72;;;;;;;5.17;90.24;100690.56;6218323;23;20005;-62
2021/12/07 12:26:06;;;;;;;15.57;3.75;;;;;;;5.23;88.57;100682.81;6217646;23;20000;-62
2021/12/07 12:28:47;;;;;;;16.02;3.42;;;;;;;5.21;88.76;100677.59;6217898;23;20425;-62
2021/12/07 12:31:13;;;;;;;16.08;3.60;;;;;;;5.31;87.96;100688.91;6217874;23;20043;-62
2021/12/07 12:33:49;;;;;;;15.30;4.05;;;;;;;5.39;88.67;100673.38;6218007;23;20059;-62
2021/12/07 12:36:18;;;;;;;10.48;3.40;;;;;;;5.47;87.57;100649.22;6217991;23;20012;-62
2021/12/07 12:38:46;;;;;;;10.25;2.72;;;;;;;5.58;86.09;100663.09;6217462;23;20410;-62
2021/12/07 12:41:13;;;;;;;12.45;3.67;;;;;;;5.68;84.55;100661.41;6217445;23;20452;-63
2021/12/07 12:43:41;;;;;;;13.00;3.92;;;;;;;5.63;86.00;100655.31;6218024;23;20064;-62
2021/12/07 12:46:08;;;;;;;11.27;4.07;;;;;;;5.65;86.38;100653.59;6217759;23;20083;-62
2021/12/07 12:48:33;;;;;;;18.67;3.78;;;;;;;5.68;86.62;100637.19;6217886;23;20076;-62
2021/12/07 12:50:59;;;;;;;9.88;3.00;;;;;;;5.60;85.29;100619.84;6217441;23;20416;-64
2021/12/07 12:53:31;;;;;;;14.55;3.10;;;;;;;5.50;87.54;100619.81;6217619;23;20070;-63